createdAt,value
2023-03-18T00:01:34.693Z,8.40
2023-03-18T00:04:02.893Z,8.43
2023-03-18T00:06:31.283Z,8.93
2023-03-18T00:08:59.533Z,8.67
2023-03-18T00:11:27.564Z,8.17
2023-03-18T00:13:55.723Z,8.43
2023-03-18T00:16:23.929Z,8.60
2023-03-18T00:18:53.892Z,8.47
2023-03-18T00:21:24.079Z,8.60
2023-03-18T00:23:56.493Z,8.50
2023-03-18T00:26:25.221Z,8.63
2023-03-18T00:28:53.827Z,8.77
2023-03-18T00:31:22.635Z,9.43
2023-03-18T00:33:51.428Z,9.20
2023-03-18T00:36:25.779Z,9.20
2023-03-18T00:38:57.927Z,9.07
2023-03-18T00:41:27.504Z,9.03
2023-03-18T00:43:56.038Z,9.37
2023-03-18T00:46:26.555Z,8.80
2023-03-18T00:48:57.005Z,9.03
2023-03-18T00:51:28.312Z,8.50
2023-03-18T00:54:02.008Z,9.90
2023-03-18T00:56:32.156Z,8.67
2023-03-18T00:59:00.867Z,9.47
2023-03-18T01:01:29.485Z,9.60
2023-03-18T01:03:57.979Z,9.30
2023-03-18T01:06:31.678Z,9.23
2023-03-18T01:09:01.697Z,8.30
2023-03-18T01:11:30.553Z,8.97
2023-03-18T01:13:59.662Z,8.87
2023-03-18T01:16:28.610Z,10.67
2023-03-18T01:18:56.795Z,10.93
2023-03-18T01:21:25.608Z,12.73
2023-03-18T01:23:55.304Z,13.20
2023-03-18T01:26:23.795Z,11.77
2023-03-18T01:28:51.941Z,11.43
2023-03-18T01:31:20.690Z,10.93
2023-03-18T01:33:49.043Z,11.10
2023-03-18T01:36:17.683Z,10.47
2023-03-18T01:38:45.772Z,9.77
2023-03-18T01:41:16.781Z,8.77
2023-03-18T01:43:45.201Z,10.90
2023-03-18T01:46:36.556Z,9.53
2023-03-18T01:49:09.144Z,9.50
2023-03-18T01:51:38.879Z,9.90
2023-03-18T01:54:08.398Z,9.37
2023-03-18T01:56:42.050Z,9.70
2023-03-18T01:59:12.644Z,9.27
2023-03-18T02:01:45.228Z,10.07
2023-03-18T02:06:42.485Z,9.70
2023-03-18T02:09:11.457Z,8.43
2023-03-18T02:11:44.331Z,8.50
2023-03-18T02:14:16.210Z,9.40
2023-03-18T02:16:49.369Z,8.23
2023-03-18T02:19:31.768Z,9.43
2023-03-18T02:22:12.059Z,9.37
2023-03-18T02:24:48.848Z,8.40
2023-03-18T02:27:20.979Z,7.97
2023-03-18T02:29:50.477Z,8.87
2023-03-18T02:32:19.465Z,8.23
2023-03-18T02:34:48.813Z,9.60
2023-03-18T02:37:16.990Z,8.43
2023-03-18T02:39:45.329Z,8.73
2023-03-18T02:42:14.700Z,8.87
2023-03-18T02:44:47.112Z,9.83
2023-03-18T02:47:20.976Z,9.60
2023-03-18T02:49:49.328Z,9.67
2023-03-18T02:52:17.490Z,9.07
2023-03-18T02:54:45.767Z,8.97
2023-03-18T02:57:13.882Z,7.70
2023-03-18T02:59:43.474Z,8.27
2023-03-18T03:02:11.928Z,7.70
2023-03-18T03:04:40.283Z,7.90
2023-03-18T03:07:08.665Z,7.80
2023-03-18T03:09:38.023Z,7.03
2023-03-18T03:12:06.767Z,7.77
2023-03-18T03:14:35.026Z,7.33
2023-03-18T03:17:04.786Z,6.37
2023-03-18T03:19:33.334Z,6.53
2023-03-18T03:22:03.078Z,6.97
2023-03-18T03:24:32.094Z,7.17
2023-03-18T03:27:02.317Z,6.10
2023-03-18T03:29:31.219Z,7.30
2023-03-18T03:31:59.423Z,6.43
2023-03-18T03:34:29.278Z,7.10
2023-03-18T03:36:57.501Z,7.77
2023-03-18T03:39:25.654Z,7.30
2023-03-18T03:41:54.055Z,6.47
2023-03-18T03:44:22.357Z,7.67
2023-03-18T03:46:51.071Z,7.30
2023-03-18T03:49:19.491Z,7.17
2023-03-18T03:51:49.127Z,7.97
2023-03-18T03:54:17.733Z,7.77
2023-03-18T03:56:46.796Z,8.73
2023-03-18T03:59:14.998Z,9.20
2023-03-18T04:01:43.177Z,9.43
2023-03-18T04:04:11.411Z,9.57
2023-03-18T04:06:39.676Z,9.47
2023-03-18T04:09:09.858Z,10.17
2023-03-18T04:11:38.571Z,9.93
2023-03-18T04:14:07.006Z,9.83
2023-03-18T04:16:35.362Z,9.53
2023-03-18T04:19:03.739Z,9.27
2023-03-18T04:21:31.978Z,10.03
2023-03-18T04:24:04.103Z,9.63
2023-03-18T04:26:33.740Z,10.17
2023-03-18T04:29:01.922Z,9.93
2023-03-18T04:31:30.143Z,9.27
2023-03-18T04:34:00.509Z,13.00
2023-03-18T04:36:28.660Z,26.43
2023-03-18T04:38:57.769Z,19.67
2023-03-18T04:41:26.145Z,14.37
2023-03-18T04:43:55.819Z,10.93
2023-03-18T04:46:23.970Z,11.00
2023-03-18T04:48:52.400Z,16.67
2023-03-18T04:51:20.853Z,12.60
2023-03-18T04:53:49.060Z,12.00
2023-03-18T04:56:17.656Z,11.67
2023-03-18T04:58:45.865Z,10.00
2023-03-18T05:01:16.183Z,9.83
2023-03-18T05:03:44.688Z,9.17
2023-03-18T05:06:22.088Z,9.80
2023-03-18T05:08:50.489Z,10.17
2023-03-18T05:11:19.216Z,10.40
2023-03-18T05:13:47.950Z,10.40
2023-03-18T05:16:17.766Z,9.67
2023-03-18T05:18:47.017Z,9.53
2023-03-18T05:21:15.803Z,10.10
2023-03-18T05:23:44.342Z,10.00
2023-03-18T05:26:12.762Z,11.07
2023-03-18T05:28:41.382Z,9.63
2023-03-18T05:31:09.659Z,9.80
2023-03-18T05:33:39.678Z,11.00
2023-03-18T05:36:09.451Z,10.03
2023-03-18T05:38:37.761Z,10.17
2023-03-18T05:41:06.420Z,10.87
2023-03-18T05:43:34.707Z,17.13
2023-03-18T05:46:04.451Z,12.77
2023-03-18T05:48:33.189Z,9.80
2023-03-18T05:51:02.826Z,9.57
2023-03-18T05:53:32.194Z,9.60
2023-03-18T05:56:00.802Z,9.77
2023-03-18T05:58:31.435Z,9.20
2023-03-18T06:01:00.345Z,10.40
2023-03-18T06:03:29.768Z,10.10
2023-03-18T06:05:58.045Z,9.80
2023-03-18T06:08:29.066Z,8.87
2023-03-18T06:10:57.386Z,8.90
2023-03-18T06:13:25.638Z,8.47
2023-03-18T06:15:58.469Z,9.10
2023-03-18T06:18:27.958Z,9.63
2023-03-18T06:20:56.220Z,8.67
2023-03-18T06:23:24.509Z,8.80
2023-03-18T06:25:53.997Z,8.47
2023-03-18T06:28:22.289Z,8.30
2023-03-18T06:30:50.515Z,8.00
2023-03-18T06:33:18.716Z,7.70
2023-03-18T06:35:49.552Z,7.63
2023-03-18T06:38:18.263Z,7.03
2023-03-18T06:40:48.143Z,7.33
2023-03-18T06:43:17.789Z,7.10
2023-03-18T06:45:47.330Z,8.10
2023-03-18T06:48:15.934Z,7.50
2023-03-18T06:50:44.409Z,8.00
2023-03-18T06:53:14.772Z,9.00
2023-03-18T06:55:43.513Z,8.47
2023-03-18T06:58:12.264Z,8.70
2023-03-18T07:00:45.544Z,8.90
2023-03-18T07:03:15.733Z,8.93
2023-03-18T07:05:44.289Z,8.40
2023-03-18T07:08:12.521Z,8.37
2023-03-18T07:10:40.940Z,8.60
2023-03-18T07:13:09.211Z,8.37
2023-03-18T07:15:38.894Z,8.83
2023-03-18T07:18:11.989Z,9.13
2023-03-18T07:20:40.344Z,8.00
2023-03-18T07:23:08.569Z,8.90
2023-03-18T07:25:37.410Z,8.73
2023-03-18T07:28:06.289Z,9.63
2023-03-18T07:30:35.733Z,7.97
2023-03-18T07:33:04.156Z,8.73
2023-03-18T07:35:34.163Z,10.20
2023-03-18T07:38:02.712Z,8.90
2023-03-18T07:40:30.982Z,8.40
2023-03-18T07:42:59.207Z,9.50
2023-03-18T07:45:27.732Z,8.67
2023-03-18T07:47:55.981Z,8.87
2023-03-18T07:50:24.263Z,9.33
2023-03-18T07:52:54.252Z,7.83
2023-03-18T07:55:22.468Z,8.03
2023-03-18T07:57:50.738Z,8.50
2023-03-18T08:00:19.659Z,8.27
2023-03-18T08:02:48.198Z,7.67
2023-03-18T08:05:16.868Z,8.23
2023-03-18T08:07:45.053Z,9.37
2023-03-18T08:10:15.119Z,9.30
2023-03-18T08:12:52.686Z,9.40
2023-03-18T08:15:22.568Z,8.53
2023-03-18T08:17:52.714Z,9.67
2023-03-18T08:20:23.307Z,8.40
2023-03-18T08:22:51.582Z,8.40
2023-03-18T08:25:23.166Z,8.40
2023-03-18T08:27:52.515Z,8.73
2023-03-18T08:30:21.276Z,8.03
2023-03-18T08:32:49.618Z,8.00
2023-03-18T08:35:18.758Z,8.77
2023-03-18T08:37:49.240Z,8.60
2023-03-18T08:40:17.985Z,9.03
2023-03-18T08:42:48.289Z,8.23
2023-03-18T08:45:17.060Z,7.80
2023-03-18T08:47:45.372Z,7.97
2023-03-18T08:50:14.671Z,9.77
2023-03-18T08:52:42.850Z,8.00
2023-03-18T08:55:11.761Z,7.63
2023-03-18T08:57:40.076Z,8.40
2023-03-18T09:00:11.591Z,8.27
2023-03-18T09:02:40.843Z,7.70
2023-03-18T09:05:09.589Z,7.63
2023-03-18T09:07:38.067Z,7.87
2023-03-18T09:10:07.079Z,8.90
2023-03-18T09:12:35.942Z,7.13
2023-03-18T09:15:06.127Z,7.67
2023-03-18T09:17:53.525Z,7.63
2023-03-18T09:20:25.123Z,7.50
2023-03-18T09:22:54.062Z,8.27
2023-03-18T09:25:22.251Z,8.23
2023-03-18T09:27:50.597Z,7.67
2023-03-18T09:30:18.980Z,7.63
2023-03-18T09:32:49.130Z,8.13
2023-03-18T09:35:17.677Z,9.00
2023-03-18T09:37:48.437Z,8.97
2023-03-18T09:40:24.441Z,8.27
2023-03-18T09:43:01.015Z,17.47
2023-03-18T09:45:34.430Z,15.67
2023-03-18T09:48:37.892Z,11.40
2023-03-18T09:51:19.163Z,8.97
2023-03-18T09:53:53.456Z,8.07
2023-03-18T09:56:26.955Z,8.23
2023-03-18T09:59:00.533Z,7.83
2023-03-18T10:01:30.273Z,9.67
2023-03-18T10:04:06.036Z,8.47
2023-03-18T10:06:43.135Z,9.60
2023-03-18T10:09:20.328Z,10.90
2023-03-18T10:11:51.647Z,11.10
2023-03-18T10:14:25.831Z,10.67
2023-03-18T10:17:04.855Z,9.60
2023-03-18T10:19:33.837Z,9.80
2023-03-18T10:22:17.757Z,10.07
2023-03-18T10:24:53.221Z,10.50
2023-03-18T10:27:31.628Z,10.80
2023-03-18T10:30:05.588Z,10.80
2023-03-18T10:32:49.922Z,10.70
2023-03-18T10:35:31.399Z,8.47
2023-03-18T10:38:05.806Z,7.60
2023-03-18T10:40:38.717Z,8.53
2023-03-18T10:43:16.915Z,9.37
2023-03-18T10:45:48.193Z,7.67
2023-03-18T10:48:22.832Z,7.37
2023-03-18T10:50:58.361Z,4.50
2023-03-18T10:53:33.035Z,5.13
2023-03-18T10:56:06.294Z,7.70
2023-03-18T10:58:37.136Z,9.03
2023-03-18T11:01:07.907Z,5.40
2023-03-18T11:03:42.307Z,6.77
2023-03-18T11:06:18.913Z,8.73
2023-03-18T11:08:50.555Z,12.50
2023-03-18T11:11:27.896Z,10.97
2023-03-18T11:13:58.046Z,12.67
2023-03-18T11:16:31.878Z,6.50
2023-03-18T11:19:00.127Z,7.10
2023-03-18T11:21:31.658Z,6.13
2023-03-18T11:24:21.107Z,8.13
2023-03-18T11:26:55.271Z,6.90
2023-03-18T11:29:27.983Z,7.60
2023-03-18T11:31:58.896Z,5.70
2023-03-18T11:34:29.239Z,5.83
2023-03-18T11:37:04.851Z,6.50
2023-03-18T11:39:37.822Z,5.50
2023-03-18T11:42:19.315Z,6.03
2023-03-18T11:44:49.585Z,5.03
2023-03-18T11:47:24.654Z,7.17
2023-03-18T11:49:53.044Z,5.97
2023-03-18T11:52:34.226Z,5.63
2023-03-18T11:55:20.000Z,7.27
2023-03-18T11:58:10.637Z,5.43
2023-03-18T12:00:46.194Z,5.17
2023-03-18T12:03:49.699Z,5.00
2023-03-18T12:06:22.855Z,4.97
2023-03-18T12:09:14.542Z,5.20
2023-03-18T12:11:57.746Z,4.70
2023-03-18T12:14:32.822Z,5.07
2023-03-18T12:17:23.672Z,5.47
2023-03-18T12:20:18.695Z,5.60
2023-03-18T12:23:03.449Z,6.50
2023-03-18T12:25:44.840Z,5.43
2023-03-18T12:28:22.667Z,5.50
2023-03-18T12:31:05.485Z,6.97
2023-03-18T12:33:45.364Z,5.50
2023-03-18T12:36:23.943Z,4.87
2023-03-18T12:39:20.574Z,6.13
2023-03-18T12:42:02.761Z,6.40
2023-03-18T12:44:47.721Z,5.63
2023-03-18T12:47:22.168Z,5.20
2023-03-18T12:49:55.510Z,6.20
2023-03-18T12:52:31.439Z,6.00
2023-03-18T12:55:05.894Z,5.70
2023-03-18T12:57:40.666Z,5.57
2023-03-18T13:00:25.033Z,5.63
2023-03-18T13:03:23.506Z,6.30
2023-03-18T13:05:57.302Z,6.80
2023-03-18T13:08:47.367Z,6.90
2023-03-18T13:11:36.204Z,6.53
2023-03-18T13:14:12.644Z,6.40
2023-03-18T13:16:48.084Z,6.40
2023-03-18T13:19:18.561Z,6.27
2023-03-18T13:21:51.734Z,6.40
2023-03-18T13:24:38.346Z,6.07
2023-03-18T13:27:31.715Z,4.80
2023-03-18T13:30:11.187Z,4.67
2023-03-18T13:32:58.373Z,5.10
2023-03-18T13:35:56.813Z,5.07
2023-03-18T13:38:38.743Z,5.40
2023-03-18T13:41:33.719Z,4.87
2023-03-18T13:44:06.810Z,4.60
2023-03-18T13:46:36.305Z,5.53
2023-03-18T13:49:06.338Z,5.57
2023-03-18T13:51:54.918Z,5.50
2023-03-18T13:54:23.640Z,5.77
2023-03-18T13:56:55.962Z,5.53
2023-03-18T13:59:47.310Z,4.90
2023-03-18T14:02:36.684Z,4.63
2023-03-18T14:05:37.314Z,4.50
2023-03-18T14:08:07.369Z,4.73
2023-03-18T14:10:35.736Z,4.80
2023-03-18T14:13:28.011Z,4.83
2023-03-18T14:15:58.960Z,5.10
2023-03-18T14:18:29.278Z,5.27
2023-03-18T14:21:05.164Z,5.33
2023-03-18T14:23:40.036Z,4.80
2023-03-18T14:26:19.963Z,5.50
2023-03-18T14:28:56.527Z,5.37
2023-03-18T14:31:52.187Z,4.70
2023-03-18T14:34:32.600Z,6.23
2023-03-18T14:37:30.452Z,6.13
2023-03-18T14:40:07.392Z,18.57
2023-03-18T14:42:59.953Z,6.37
2023-03-18T14:45:34.993Z,10.90
2023-03-18T14:48:06.804Z,7.17
2023-03-18T14:50:43.068Z,5.63
2023-03-18T14:53:20.387Z,5.23
2023-03-18T14:55:49.917Z,8.40
2023-03-18T14:58:19.195Z,5.80
2023-03-18T15:00:49.819Z,5.53
2023-03-18T15:03:24.981Z,4.53
2023-03-18T15:05:58.209Z,4.50
2023-03-18T15:08:46.295Z,5.53
2023-03-18T15:11:17.665Z,5.23
2023-03-18T15:13:47.270Z,5.63
2023-03-18T15:16:20.030Z,6.03
2023-03-18T15:18:54.910Z,6.10
2023-03-18T15:21:27.620Z,5.47
2023-03-18T15:24:01.304Z,5.07
2023-03-18T15:26:31.955Z,5.60
2023-03-18T15:29:01.472Z,11.00
2023-03-18T15:31:31.890Z,7.43
2023-03-18T15:34:08.202Z,7.97
2023-03-18T15:36:44.001Z,8.70
2023-03-18T15:39:31.075Z,8.63
2023-03-18T15:42:01.113Z,11.97
2023-03-18T15:44:32.650Z,5.97
2023-03-18T15:47:14.880Z,5.90
2023-03-18T15:49:54.600Z,6.37
2023-03-18T15:52:26.347Z,5.17
2023-03-18T15:54:56.531Z,5.20
2023-03-18T15:57:30.601Z,4.40
2023-03-18T15:59:58.741Z,5.03
2023-03-18T16:02:27.680Z,5.30
2023-03-18T16:05:06.521Z,6.77
2023-03-18T16:07:34.858Z,5.87
2023-03-18T16:10:04.489Z,7.53
2023-03-18T16:12:35.905Z,6.93
2023-03-18T16:15:06.425Z,6.83
2023-03-18T16:17:34.841Z,8.13
2023-03-18T16:20:06.660Z,7.17
2023-03-18T16:22:35.699Z,8.17
2023-03-18T16:25:06.711Z,8.40
2023-03-18T16:27:39.735Z,8.57
2023-03-18T16:30:20.409Z,6.73
2023-03-18T16:32:48.674Z,7.00
2023-03-18T16:35:18.232Z,6.87
2023-03-18T16:37:47.993Z,6.97
2023-03-18T16:40:20.232Z,7.47
2023-03-18T16:42:49.140Z,7.03
2023-03-18T16:45:19.449Z,7.23
2023-03-18T16:47:50.234Z,8.10
2023-03-18T16:50:21.156Z,7.63
2023-03-18T16:52:50.510Z,7.80
2023-03-18T16:55:20.589Z,7.97
2023-03-18T16:57:51.717Z,8.10
2023-03-18T17:00:24.115Z,22.33
2023-03-18T17:02:53.877Z,8.77
2023-03-18T17:05:22.723Z,9.70
2023-03-18T17:07:51.795Z,8.70
2023-03-18T17:10:24.701Z,8.50
2023-03-18T17:12:57.000Z,11.17
2023-03-18T17:15:28.078Z,12.10
2023-03-18T17:17:58.771Z,11.70
2023-03-18T17:20:30.543Z,12.90
2023-03-18T17:22:58.746Z,13.40
2023-03-18T17:25:32.017Z,12.73
2023-03-18T17:28:02.826Z,13.23
2023-03-18T17:30:34.951Z,13.73
2023-03-18T17:33:03.865Z,14.47
2023-03-18T17:35:33.095Z,13.90
2023-03-18T17:38:02.053Z,14.80
2023-03-18T17:40:31.967Z,16.33
2023-03-18T17:43:01.420Z,23.27
2023-03-18T17:45:33.009Z,16.40
2023-03-18T17:48:16.153Z,23.63
2023-03-18T17:50:45.202Z,18.83
2023-03-18T17:53:25.633Z,20.93
2023-03-18T17:55:56.246Z,18.23
2023-03-18T17:58:26.626Z,17.17
2023-03-18T18:00:55.749Z,16.67
2023-03-18T18:03:27.046Z,16.97
2023-03-18T18:05:56.128Z,16.07
2023-03-18T18:08:27.251Z,17.70
2023-03-18T18:11:06.084Z,16.27
2023-03-18T18:13:34.297Z,15.03
2023-03-18T18:16:02.688Z,15.90
2023-03-18T18:18:31.223Z,14.90
2023-03-18T18:21:01.031Z,14.80
2023-03-18T18:23:34.037Z,14.17
2023-03-18T18:26:06.158Z,12.90
2023-03-18T18:28:35.841Z,12.30
2023-03-18T18:31:06.838Z,13.03
2023-03-18T18:33:37.276Z,11.83
2023-03-18T18:36:06.678Z,11.37
2023-03-18T18:38:36.432Z,12.07
2023-03-18T18:41:07.126Z,10.20
2023-03-18T18:43:36.288Z,11.27
2023-03-18T18:46:04.651Z,10.90
2023-03-18T18:48:35.571Z,11.23
2023-03-18T18:51:07.328Z,11.20
2023-03-18T18:53:37.292Z,11.30
2023-03-18T18:56:15.115Z,11.20
2023-03-18T18:58:43.567Z,12.20
2023-03-18T19:01:13.519Z,12.37
2023-03-18T19:03:43.757Z,16.23
2023-03-18T19:06:24.885Z,13.33
2023-03-18T19:08:54.660Z,16.07
2023-03-18T19:11:28.069Z,13.93
2023-03-18T19:14:18.983Z,17.60
2023-03-18T19:16:49.851Z,19.13
2023-03-18T19:19:21.406Z,14.03
2023-03-18T19:21:51.695Z,13.93
2023-03-18T19:24:29.663Z,12.20
2023-03-18T19:27:02.761Z,12.60
2023-03-18T19:29:32.106Z,11.13
2023-03-18T19:32:01.798Z,11.00
2023-03-18T19:34:32.745Z,9.20
2023-03-18T19:37:02.879Z,7.47
2023-03-18T19:39:31.950Z,9.37
2023-03-18T19:42:01.981Z,8.80
2023-03-18T19:44:30.266Z,9.20
2023-03-18T19:47:01.189Z,9.23
2023-03-18T19:49:33.876Z,9.67
2023-03-18T19:52:02.645Z,8.20
2023-03-18T19:54:33.432Z,9.60
2023-03-18T19:57:06.957Z,8.97
2023-03-18T19:59:39.474Z,9.53
2023-03-18T20:02:21.139Z,9.07
2023-03-18T20:04:49.583Z,8.60
2023-03-18T20:07:20.255Z,12.63
2023-03-18T20:09:49.612Z,10.60
2023-03-18T20:12:25.671Z,9.97
2023-03-18T20:14:54.824Z,12.73
2023-03-18T20:17:32.440Z,11.97
2023-03-18T20:20:01.186Z,12.60
2023-03-18T20:22:33.661Z,13.27
2023-03-18T20:25:02.561Z,14.33
2023-03-18T20:27:32.770Z,12.40
2023-03-18T20:30:01.586Z,12.50
2023-03-18T20:32:30.019Z,11.33
2023-03-18T20:34:58.280Z,13.70
2023-03-18T20:37:33.854Z,13.73
2023-03-18T20:40:02.950Z,12.60
2023-03-18T20:42:33.609Z,12.70
2023-03-18T20:45:02.090Z,12.80
2023-03-18T20:47:30.247Z,13.63
2023-03-18T20:49:58.425Z,13.70
2023-03-18T20:52:29.782Z,12.60
2023-03-18T20:54:58.162Z,14.53
2023-03-18T20:57:26.609Z,14.13
2023-03-18T20:59:57.022Z,13.67
2023-03-18T21:02:33.881Z,14.87
2023-03-18T21:05:03.226Z,13.90
2023-03-18T21:07:32.692Z,14.40
2023-03-18T21:10:00.856Z,15.40
2023-03-18T21:12:29.284Z,15.43
2023-03-18T21:14:58.993Z,16.27
2023-03-18T21:17:28.628Z,15.80
2023-03-18T21:20:11.081Z,17.10
2023-03-18T21:22:48.449Z,16.47
2023-03-18T21:25:21.953Z,17.13
2023-03-18T21:27:51.176Z,17.53
2023-03-18T21:30:23.231Z,18.13
2023-03-18T21:32:51.861Z,17.63
2023-03-18T21:35:22.441Z,19.03
2023-03-18T21:37:51.258Z,17.63
2023-03-18T21:40:21.831Z,17.40
2023-03-18T21:42:51.034Z,16.90
2023-03-18T21:45:22.968Z,16.03
2023-03-18T21:47:53.185Z,13.27
2023-03-18T21:50:24.064Z,14.63
2023-03-18T21:52:52.668Z,12.03
2023-03-18T21:55:21.376Z,10.53
2023-03-18T21:57:49.811Z,11.47
2023-03-18T22:00:21.680Z,11.30
2023-03-18T22:02:49.914Z,11.43
2023-03-18T22:05:20.824Z,11.97
2023-03-18T22:07:50.650Z,12.60
2023-03-18T22:10:20.938Z,10.63
2023-03-18T22:12:49.080Z,9.67
2023-03-18T22:15:43.070Z,9.07
2023-03-18T22:18:11.258Z,9.70
2023-03-18T22:20:40.594Z,9.97
2023-03-18T22:23:18.803Z,9.87
2023-03-18T22:25:48.354Z,11.63
2023-03-18T22:28:16.607Z,10.87
2023-03-18T22:30:52.501Z,9.80
2023-03-18T22:33:22.959Z,11.20
2023-03-18T22:35:51.640Z,12.23
2023-03-18T22:38:22.439Z,12.87
2023-03-18T22:40:53.365Z,12.77
2023-03-18T22:43:31.740Z,13.47
2023-03-18T22:46:02.853Z,14.37
2023-03-18T22:48:31.435Z,14.80
2023-03-18T22:51:00.860Z,14.83
2023-03-18T22:53:32.772Z,14.97
2023-03-18T22:56:06.440Z,14.87
2023-03-18T22:58:34.815Z,15.87
2023-03-18T23:01:05.115Z,14.20
2023-03-18T23:03:35.204Z,13.43
2023-03-18T23:06:05.004Z,13.70
2023-03-18T23:08:33.548Z,13.57
2023-03-18T23:11:02.906Z,14.13
2023-03-18T23:16:26.523Z,15.23
2023-03-18T23:18:54.739Z,15.80
2023-03-18T23:21:24.769Z,14.77
2023-03-18T23:23:53.662Z,15.27
2023-03-18T23:26:22.321Z,17.97
2023-03-18T23:28:50.688Z,17.27
2023-03-18T23:31:19.303Z,16.30
2023-03-18T23:33:48.823Z,15.57
2023-03-18T23:36:17.346Z,14.90
2023-03-18T23:38:45.457Z,14.33
2023-03-18T23:41:14.605Z,16.20
2023-03-18T23:43:42.758Z,17.77
2023-03-18T23:46:11.069Z,16.40
2023-03-18T23:48:39.368Z,15.70
2023-03-18T23:51:08.996Z,14.87
2023-03-18T23:53:37.216Z,16.20
2023-03-18T23:56:05.503Z,17.23
2023-03-18T23:58:33.711Z,16.33
